createdAt,value
2023-05-18T00:01:07.872Z,6.85
2023-05-18T00:03:36.840Z,7.28
2023-05-18T00:06:07.454Z,6.70
2023-05-18T00:08:36.855Z,6.72
2023-05-18T00:11:07.353Z,6.10
2023-05-18T00:13:36.177Z,6.20
2023-05-18T00:16:05.140Z,6.67
2023-05-18T00:18:34.696Z,6.37
2023-05-18T00:21:04.197Z,6.55
2023-05-18T00:23:33.827Z,7.22
2023-05-18T00:26:02.551Z,6.67
2023-05-18T00:28:31.343Z,6.97
2023-05-18T00:31:00.280Z,6.50
2023-05-18T00:33:29.134Z,6.53
2023-05-18T00:35:59.371Z,6.55
2023-05-18T00:38:28.351Z,6.33
2023-05-18T00:40:57.684Z,6.55
2023-05-18T00:43:28.925Z,6.40
2023-05-18T00:45:58.042Z,6.60
2023-05-18T00:48:26.997Z,7.25
2023-05-18T00:50:55.700Z,7.20
2023-05-18T00:53:25.072Z,8.45
2023-05-18T00:55:53.644Z,9.10
2023-05-18T00:58:23.506Z,9.60
2023-05-18T01:00:53.099Z,9.60
2023-05-18T01:03:22.138Z,10.13
2023-05-18T01:05:53.286Z,9.65
2023-05-18T01:08:24.180Z,9.40
2023-05-18T01:11:23.653Z,8.98
2023-05-18T01:14:11.211Z,9.48
2023-05-18T01:16:53.581Z,9.85
2023-05-18T01:19:28.149Z,8.98
2023-05-18T01:22:41.635Z,9.30
2023-05-18T01:25:33.936Z,7.03
2023-05-18T01:28:06.357Z,7.03
2023-05-18T01:30:40.444Z,7.30
2023-05-18T01:33:11.732Z,6.92
2023-05-18T01:35:49.499Z,6.90
2023-05-18T01:38:23.076Z,6.10
2023-05-18T01:41:28.959Z,5.83
2023-05-18T01:44:21.258Z,5.92
2023-05-18T01:47:01.841Z,5.78
2023-05-18T01:49:59.481Z,5.85
2023-05-18T01:52:36.809Z,6.03
2023-05-18T01:55:07.798Z,5.58
2023-05-18T01:57:38.009Z,5.90
2023-05-18T02:00:09.880Z,5.37
2023-05-18T02:02:50.032Z,6.00
2023-05-18T02:05:20.403Z,6.35
2023-05-18T02:07:49.748Z,5.97
2023-05-18T02:10:18.530Z,5.00
2023-05-18T02:12:49.457Z,5.03
2023-05-18T02:15:19.692Z,4.92
2023-05-18T02:17:50.995Z,5.87
2023-05-18T02:20:20.496Z,5.33
2023-05-18T02:22:49.517Z,5.40
2023-05-18T02:25:18.828Z,5.37
2023-05-18T02:27:47.395Z,5.70
2023-05-18T02:30:17.117Z,5.65
2023-05-18T02:32:47.305Z,4.92
2023-05-18T02:35:20.360Z,5.17
2023-05-18T02:37:49.866Z,5.42
2023-05-18T02:40:19.193Z,4.92
2023-05-18T02:42:48.277Z,5.30
2023-05-18T02:45:20.351Z,5.50
2023-05-18T02:47:48.926Z,5.12
2023-05-18T02:50:17.622Z,5.08
2023-05-18T02:52:48.776Z,5.72
2023-05-18T02:55:18.945Z,5.20
2023-05-18T02:57:49.993Z,5.65
2023-05-18T03:00:23.464Z,5.42
2023-05-18T03:02:53.472Z,5.20
2023-05-18T03:05:23.601Z,5.83
2023-05-18T03:07:54.633Z,6.50
2023-05-18T03:10:23.471Z,5.60
2023-05-18T03:12:53.068Z,5.28
2023-05-18T03:15:22.183Z,5.22
2023-05-18T03:17:51.530Z,5.87
2023-05-18T03:20:21.618Z,5.50
2023-05-18T03:22:50.993Z,5.87
2023-05-18T03:25:20.825Z,6.05
2023-05-18T03:27:52.831Z,6.22
2023-05-18T03:30:22.082Z,6.10
2023-05-18T03:32:51.338Z,6.92
2023-05-18T03:35:20.003Z,6.90
2023-05-18T03:37:48.660Z,6.80
2023-05-18T03:40:18.942Z,6.25
2023-05-18T03:42:48.282Z,6.28
2023-05-18T03:45:18.600Z,6.30
2023-05-18T03:47:47.917Z,6.70
2023-05-18T03:50:16.613Z,6.17
2023-05-18T03:52:46.067Z,6.50
2023-05-18T03:55:14.671Z,6.00
2023-05-18T03:57:43.462Z,6.53
2023-05-18T04:00:16.065Z,6.45
2023-05-18T04:02:49.629Z,6.53
2023-05-18T04:05:19.521Z,6.10
2023-05-18T04:07:49.923Z,7.05
2023-05-18T04:10:21.051Z,8.20
2023-05-18T04:12:50.392Z,8.33
2023-05-18T04:15:19.367Z,7.03
2023-05-18T04:17:51.274Z,6.55
2023-05-18T04:20:21.079Z,5.70
2023-05-18T04:22:50.548Z,6.37
2023-05-18T04:25:20.259Z,6.50
2023-05-18T04:27:51.634Z,7.00
2023-05-18T04:30:22.975Z,6.25
2023-05-18T04:32:54.314Z,5.80
2023-05-18T04:35:25.840Z,5.50
2023-05-18T04:37:55.262Z,5.30
2023-05-18T04:40:25.909Z,5.60
2023-05-18T04:42:54.855Z,5.33
2023-05-18T04:45:29.900Z,6.00
2023-05-18T04:47:59.405Z,4.58
2023-05-18T04:50:29.481Z,4.72
2023-05-18T04:53:00.725Z,5.60
2023-05-18T04:55:30.970Z,4.87
2023-05-18T04:58:03.133Z,5.42
2023-05-18T05:00:31.928Z,4.50
2023-05-18T05:03:01.660Z,5.40
2023-05-18T05:05:31.226Z,4.97
2023-05-18T05:08:00.272Z,5.00
2023-05-18T05:10:29.743Z,5.62
2023-05-18T05:12:58.495Z,5.53
2023-05-18T05:15:29.642Z,5.12
2023-05-18T05:17:58.953Z,8.43
2023-05-18T05:20:27.755Z,5.50
2023-05-18T05:22:56.904Z,4.95
2023-05-18T05:25:27.543Z,5.62
2023-05-18T05:27:56.274Z,5.65
2023-05-18T05:30:25.746Z,4.70
2023-05-18T05:32:55.507Z,5.30
2023-05-18T05:35:24.690Z,5.17
2023-05-18T05:37:54.061Z,5.37
2023-05-18T05:40:23.370Z,6.17
2023-05-18T05:42:53.521Z,4.90
2023-05-18T05:45:23.397Z,4.60
2023-05-18T05:47:54.564Z,4.30
2023-05-18T05:50:24.575Z,5.03
2023-05-18T05:52:55.171Z,5.97
2023-05-18T05:55:26.469Z,4.53
2023-05-18T05:57:55.348Z,3.80
2023-05-18T06:00:25.073Z,5.15
2023-05-18T06:02:55.809Z,4.22
2023-05-18T06:05:27.281Z,5.70
2023-05-18T06:07:57.388Z,5.30
2023-05-18T06:10:26.042Z,4.87
2023-05-18T06:12:55.786Z,5.00
2023-05-18T06:15:28.522Z,5.28
2023-05-18T06:17:58.355Z,4.60
2023-05-18T06:20:27.480Z,4.40
2023-05-18T06:22:57.175Z,4.87
2023-05-18T06:25:28.046Z,4.78
2023-05-18T06:28:01.830Z,4.67
2023-05-18T06:30:32.304Z,5.83
2023-05-18T06:33:04.263Z,4.62
2023-05-18T06:35:33.775Z,4.78
2023-05-18T06:38:02.839Z,4.80
2023-05-18T06:40:32.941Z,4.40
2023-05-18T06:43:01.966Z,4.28
2023-05-18T06:45:37.305Z,4.35
2023-05-18T06:48:11.517Z,4.42
2023-05-18T06:50:40.276Z,5.12
2023-05-18T06:53:09.776Z,4.45
2023-05-18T06:55:39.028Z,4.20
2023-05-18T06:58:07.733Z,4.17
2023-05-18T07:00:38.940Z,3.90
2023-05-18T07:03:08.769Z,5.70
2023-05-18T07:05:39.527Z,4.05
2023-05-18T07:08:09.802Z,3.90
2023-05-18T07:10:38.655Z,4.05
2023-05-18T07:13:07.786Z,3.25
2023-05-18T07:15:36.698Z,3.27
2023-05-18T07:18:05.504Z,3.47
2023-05-18T07:20:34.688Z,2.92
2023-05-18T07:23:03.798Z,3.25
2023-05-18T07:25:34.116Z,3.40
2023-05-18T07:28:03.093Z,3.12
2023-05-18T07:30:32.837Z,2.80
2023-05-18T07:33:02.058Z,2.90
2023-05-18T07:35:31.348Z,2.80
2023-05-18T07:38:00.789Z,2.80
2023-05-18T07:40:29.940Z,2.67
2023-05-18T07:42:58.897Z,3.62
2023-05-18T07:45:28.223Z,3.02
2023-05-18T07:47:57.649Z,4.75
2023-05-18T07:50:26.631Z,3.98
2023-05-18T07:52:56.322Z,3.10
2023-05-18T07:55:25.260Z,3.05
2023-05-18T07:57:54.416Z,4.22
2023-05-18T08:00:24.496Z,3.80
2023-05-18T08:02:55.425Z,3.20
2023-05-18T08:05:26.815Z,2.95
2023-05-18T08:07:56.636Z,3.58
2023-05-18T08:10:26.265Z,4.08
2023-05-18T08:12:55.957Z,4.12
2023-05-18T08:15:25.227Z,4.20
2023-05-18T08:17:54.966Z,4.00
2023-05-18T08:20:25.337Z,4.53
2023-05-18T08:22:54.158Z,4.12
2023-05-18T08:25:24.058Z,4.03
2023-05-18T08:27:53.903Z,4.90
2023-05-18T08:30:25.494Z,4.33
2023-05-18T08:32:55.041Z,4.65
2023-05-18T08:35:24.419Z,4.55
2023-05-18T08:37:54.649Z,4.92
2023-05-18T08:40:24.052Z,5.55
2023-05-18T08:43:06.644Z,5.05
2023-05-18T08:45:43.734Z,4.83
2023-05-18T08:48:12.874Z,5.15
2023-05-18T08:50:42.686Z,5.75
2023-05-18T08:53:12.062Z,5.62
2023-05-18T08:55:42.205Z,5.78
2023-05-18T08:58:13.217Z,6.15
2023-05-18T09:00:43.422Z,6.80
2023-05-18T09:03:12.240Z,7.53
2023-05-18T09:05:41.953Z,6.80
2023-05-18T09:08:12.854Z,7.05
2023-05-18T09:10:41.577Z,7.45
2023-05-18T09:13:10.364Z,8.43
2023-05-18T09:15:40.885Z,7.28
2023-05-18T09:18:09.623Z,6.12
2023-05-18T09:20:39.662Z,6.58
2023-05-18T09:23:09.006Z,7.00
2023-05-18T09:25:41.116Z,6.45
2023-05-18T09:28:09.771Z,6.58
2023-05-18T09:30:42.634Z,5.60
2023-05-18T09:33:18.712Z,6.25
2023-05-18T09:35:48.300Z,5.17
2023-05-18T09:38:22.134Z,5.25
2023-05-18T09:40:52.712Z,5.17
2023-05-18T09:43:22.039Z,5.53
2023-05-18T09:45:51.291Z,6.00
2023-05-18T09:48:21.195Z,5.15
2023-05-18T09:50:50.663Z,4.90
2023-05-18T09:53:19.717Z,5.70
2023-05-18T09:55:50.285Z,5.97
2023-05-18T09:58:19.790Z,5.50
2023-05-18T10:00:53.877Z,5.80
2023-05-18T10:03:24.497Z,5.55
2023-05-18T10:05:53.724Z,6.28
2023-05-18T10:08:22.996Z,6.60
2023-05-18T10:10:52.490Z,5.58
2023-05-18T10:13:21.550Z,6.03
2023-05-18T10:15:56.380Z,6.03
2023-05-18T10:18:36.626Z,5.72
2023-05-18T10:21:08.095Z,5.60
2023-05-18T10:23:37.722Z,6.30
2023-05-18T10:26:07.720Z,6.15
2023-05-18T10:28:47.181Z,5.90
2023-05-18T10:31:16.970Z,5.90
2023-05-18T10:33:46.099Z,5.58
2023-05-18T10:36:16.685Z,5.60
2023-05-18T10:38:46.699Z,5.60
2023-05-18T10:41:15.701Z,6.00
2023-05-18T10:43:46.466Z,5.47
2023-05-18T10:46:16.336Z,5.75
2023-05-18T10:48:48.022Z,5.67
2023-05-18T10:51:18.597Z,5.60
2023-05-18T10:53:49.812Z,5.67
2023-05-18T10:56:19.378Z,6.00
2023-05-18T10:58:48.522Z,5.17
2023-05-18T11:01:17.864Z,5.67
2023-05-18T11:03:48.764Z,5.90
2023-05-18T11:06:18.527Z,5.80
2023-05-18T11:08:51.483Z,5.30
2023-05-18T11:11:27.899Z,7.65
2023-05-18T11:14:04.609Z,5.22
2023-05-18T11:16:35.643Z,5.40
2023-05-18T11:19:11.432Z,5.22
2023-05-18T11:21:49.082Z,5.60
2023-05-18T11:24:33.037Z,5.55
2023-05-18T11:27:19.541Z,5.08
2023-05-18T11:29:57.676Z,5.20
2023-05-18T11:32:32.802Z,5.30
2023-05-18T11:35:06.917Z,5.22
2023-05-18T11:37:49.570Z,5.30
2023-05-18T11:40:50.906Z,5.05
2023-05-18T11:43:27.388Z,5.15
2023-05-18T11:46:01.231Z,5.20
2023-05-18T11:48:31.060Z,5.33
2023-05-18T11:51:01.186Z,5.30
2023-05-18T11:53:31.283Z,5.72
2023-05-18T11:55:59.806Z,5.50
2023-05-18T11:58:30.373Z,5.92
2023-05-18T12:00:59.593Z,5.75
2023-05-18T12:03:30.019Z,5.70
2023-05-18T12:05:59.785Z,5.87
2023-05-18T12:08:29.682Z,5.05
2023-05-18T12:10:58.589Z,5.60
2023-05-18T12:13:28.567Z,5.50
2023-05-18T12:15:59.008Z,5.92
2023-05-18T12:18:29.746Z,5.10
2023-05-18T12:20:59.068Z,5.78
2023-05-18T12:23:38.345Z,6.03
2023-05-18T12:26:07.856Z,5.53
2023-05-18T12:28:39.115Z,5.87
2023-05-18T12:31:08.882Z,5.45
2023-05-18T12:33:37.630Z,5.22
2023-05-18T12:36:11.606Z,5.42
2023-05-18T12:38:42.799Z,5.28
2023-05-18T12:41:12.264Z,5.60
2023-05-18T12:43:41.698Z,5.72
2023-05-18T12:46:10.781Z,5.75
2023-05-18T12:48:44.818Z,5.15
2023-05-18T12:51:20.074Z,5.42
2023-05-18T12:53:52.354Z,6.40
2023-05-18T12:56:23.046Z,5.12
2023-05-18T12:58:58.346Z,5.33
2023-05-18T13:01:27.706Z,5.72
2023-05-18T13:03:58.211Z,5.22
2023-05-18T13:06:27.172Z,7.00
2023-05-18T13:08:56.313Z,6.08
2023-05-18T13:11:27.619Z,5.80
2023-05-18T13:14:04.459Z,6.00
2023-05-18T13:19:09.334Z,5.67
2023-05-18T13:21:39.239Z,5.33
2023-05-18T13:24:08.548Z,5.35
2023-05-18T13:26:37.453Z,5.92
2023-05-18T13:29:07.510Z,6.10
2023-05-18T13:31:38.828Z,5.40
2023-05-18T13:34:07.489Z,5.08
2023-05-18T13:36:36.970Z,6.05
2023-05-18T13:39:07.047Z,5.40
2023-05-18T13:41:37.066Z,5.47
2023-05-18T13:44:06.257Z,6.40
2023-05-18T13:46:37.769Z,5.55
2023-05-18T13:49:08.106Z,6.17
2023-05-18T13:51:36.812Z,5.92
2023-05-18T13:54:07.559Z,5.50
2023-05-18T13:56:36.895Z,5.55
2023-05-18T13:59:06.096Z,6.22
2023-05-18T14:01:35.583Z,5.92
2023-05-18T14:04:04.644Z,5.67
2023-05-18T14:06:34.092Z,5.85
2023-05-18T14:09:04.280Z,6.08
2023-05-18T14:11:34.774Z,5.45
2023-05-18T14:14:03.998Z,6.05
2023-05-18T14:16:34.101Z,6.22
2023-05-18T14:19:03.793Z,5.62
2023-05-18T14:21:33.743Z,5.83
2023-05-18T14:24:04.109Z,5.95
2023-05-18T14:26:36.138Z,5.58
2023-05-18T14:29:05.730Z,5.35
2023-05-18T14:31:35.425Z,5.80
2023-05-18T14:34:05.652Z,5.50
2023-05-18T14:36:35.754Z,5.78
2023-05-18T14:39:04.906Z,5.72
2023-05-18T14:41:34.238Z,5.87
2023-05-18T14:44:08.274Z,5.40
2023-05-18T14:46:38.071Z,5.87
2023-05-18T14:49:07.745Z,6.00
2023-05-18T14:51:37.295Z,6.78
2023-05-18T14:54:06.483Z,6.00
2023-05-18T14:56:36.808Z,6.90
2023-05-18T14:59:05.783Z,7.10
2023-05-18T15:01:35.206Z,5.37
2023-05-18T15:04:06.203Z,5.72
2023-05-18T15:06:37.405Z,5.97
2023-05-18T15:09:08.041Z,6.17
2023-05-18T15:11:37.116Z,6.10
2023-05-18T15:14:07.333Z,5.75
2023-05-18T15:16:36.685Z,6.20
2023-05-18T15:19:06.689Z,6.53
2023-05-18T15:21:35.871Z,6.17
2023-05-18T15:24:06.692Z,7.00
2023-05-18T15:26:36.988Z,7.20
2023-05-18T15:29:06.305Z,6.58
2023-05-18T15:31:38.554Z,7.00
2023-05-18T15:34:07.617Z,8.75
2023-05-18T15:36:38.401Z,9.13
2023-05-18T15:39:09.246Z,8.00
2023-05-18T15:41:38.571Z,6.42
2023-05-18T15:44:08.173Z,5.92
2023-05-18T15:46:37.184Z,7.30
2023-05-18T15:49:05.850Z,6.15
2023-05-18T15:51:36.363Z,6.15
2023-05-18T15:54:05.928Z,6.42
2023-05-18T15:56:38.021Z,6.28
2023-05-18T15:59:08.560Z,6.35
2023-05-18T16:01:39.032Z,6.75
2023-05-18T16:04:08.001Z,6.83
2023-05-18T16:06:38.701Z,7.62
2023-05-18T16:09:08.207Z,6.78
2023-05-18T16:11:37.259Z,6.87
2023-05-18T16:14:07.102Z,8.50
2023-05-18T16:16:37.030Z,6.50
2023-05-18T16:19:07.372Z,7.65
2023-05-18T16:21:36.794Z,7.22
2023-05-18T16:24:07.362Z,7.30
2023-05-18T16:26:39.782Z,6.80
2023-05-18T16:29:10.524Z,6.28
2023-05-18T16:31:40.844Z,6.08
2023-05-18T16:34:15.018Z,6.12
2023-05-18T16:36:45.063Z,5.75
2023-05-18T16:39:14.779Z,6.58
2023-05-18T16:41:44.660Z,5.42
2023-05-18T16:44:13.433Z,5.35
2023-05-18T16:46:41.829Z,5.72
2023-05-18T16:49:10.818Z,5.40
2023-05-18T16:51:39.888Z,5.87
2023-05-18T16:54:09.124Z,6.03
2023-05-18T16:56:38.934Z,5.92
2023-05-18T16:59:07.809Z,5.97
2023-05-18T17:01:37.243Z,6.95
2023-05-18T17:04:07.634Z,5.33
2023-05-18T17:06:37.764Z,6.33
2023-05-18T17:09:06.964Z,5.20
2023-05-18T17:11:39.023Z,5.62
2023-05-18T17:14:08.047Z,5.70
2023-05-18T17:16:40.540Z,5.80
2023-05-18T17:19:09.638Z,5.92
2023-05-18T17:21:38.401Z,6.20
2023-05-18T17:24:07.310Z,6.40
2023-05-18T17:26:36.495Z,6.17
2023-05-18T17:29:05.678Z,6.15
2023-05-18T17:31:34.780Z,6.40
2023-05-18T17:34:03.991Z,6.67
2023-05-18T17:36:33.152Z,7.10
2023-05-18T17:39:04.109Z,6.92
2023-05-18T17:41:33.239Z,6.80
2023-05-18T17:44:02.040Z,6.45
2023-05-18T17:46:31.393Z,8.00
2023-05-18T17:49:02.246Z,6.78
2023-05-18T17:51:31.167Z,6.35
2023-05-18T17:54:01.938Z,6.33
2023-05-18T17:56:31.432Z,7.10
2023-05-18T17:59:00.339Z,6.92
2023-05-18T18:01:29.555Z,7.03
2023-05-18T18:03:58.262Z,6.72
2023-05-18T18:06:28.200Z,7.20
2023-05-18T18:08:58.088Z,6.72
2023-05-18T18:11:27.642Z,7.53
2023-05-18T18:13:56.591Z,7.37
2023-05-18T18:16:25.445Z,7.10
2023-05-18T18:18:54.522Z,7.67
2023-05-18T18:21:23.781Z,7.00
2023-05-18T18:23:53.309Z,7.62
2023-05-18T18:26:21.901Z,7.00
2023-05-18T18:28:51.400Z,7.85
2023-05-18T18:31:21.140Z,7.08
2023-05-18T18:33:51.147Z,8.08
2023-05-18T18:36:20.336Z,8.03
2023-05-18T18:38:49.389Z,8.28
2023-05-18T18:41:18.413Z,7.62
2023-05-18T18:43:47.190Z,8.53
2023-05-18T18:46:15.931Z,7.78
2023-05-18T18:48:45.087Z,9.33
2023-05-18T18:51:13.894Z,8.63
2023-05-18T18:53:42.471Z,8.73
2023-05-18T18:56:11.133Z,9.78
2023-05-18T18:58:39.813Z,9.20
2023-05-18T19:01:10.275Z,8.73
2023-05-18T19:03:39.056Z,8.93
2023-05-18T19:06:09.457Z,8.75
2023-05-18T19:08:39.605Z,9.03
2023-05-18T19:11:10.329Z,11.25
2023-05-18T19:13:40.652Z,9.68
2023-05-18T19:16:10.156Z,9.95
2023-05-18T19:18:39.021Z,9.48
2023-05-18T19:21:07.664Z,9.00
2023-05-18T19:23:36.948Z,8.73
2023-05-18T19:26:06.111Z,9.50
2023-05-18T19:28:34.936Z,9.03
2023-05-18T19:31:04.572Z,8.58
2023-05-18T19:33:34.079Z,8.60
2023-05-18T19:36:04.030Z,9.23
2023-05-18T19:38:34.288Z,9.18
2023-05-18T19:41:03.305Z,9.20
2023-05-18T19:43:33.671Z,9.28
2023-05-18T19:46:03.006Z,9.58
2023-05-18T19:48:32.408Z,9.05
2023-05-18T19:51:04.999Z,9.10
2023-05-18T19:53:34.489Z,9.68
2023-05-18T19:56:03.190Z,9.63
2023-05-18T19:58:31.853Z,9.68
2023-05-18T20:01:02.690Z,9.70
2023-05-18T20:03:32.569Z,10.23
2023-05-18T20:06:02.347Z,10.55
2023-05-18T20:08:31.974Z,9.78
2023-05-18T20:11:00.549Z,10.50
2023-05-18T20:13:30.975Z,11.08
2023-05-18T20:16:05.638Z,12.00
2023-05-18T20:18:35.675Z,11.80
2023-05-18T20:21:07.983Z,12.23
2023-05-18T20:23:37.007Z,11.73
2023-05-18T20:26:07.051Z,11.80
2023-05-18T20:28:36.020Z,13.20
2023-05-18T20:31:05.200Z,12.78
2023-05-18T20:33:36.972Z,11.53
2023-05-18T20:36:09.077Z,11.40
2023-05-18T20:38:38.959Z,11.53
2023-05-18T20:41:09.654Z,11.75
2023-05-18T20:43:38.811Z,17.80
2023-05-18T20:46:07.811Z,15.48
2023-05-18T20:48:38.700Z,13.78
2023-05-18T20:51:09.441Z,12.75
2023-05-18T20:53:41.454Z,12.73
2023-05-18T20:56:12.597Z,11.83
2023-05-18T20:58:42.898Z,11.95
2023-05-18T21:01:12.134Z,11.33
2023-05-18T21:03:43.267Z,11.43
2023-05-18T21:06:20.602Z,11.60
2023-05-18T21:11:19.212Z,11.03
2023-05-18T21:13:48.640Z,11.00
2023-05-18T21:16:18.752Z,11.15
2023-05-18T21:18:47.950Z,11.57
2023-05-18T21:21:16.641Z,10.88
2023-05-18T21:23:46.647Z,11.10
2023-05-18T21:26:16.168Z,10.63
2023-05-18T21:28:45.634Z,10.32
2023-05-18T21:31:15.040Z,9.98
2023-05-18T21:33:45.592Z,9.63
2023-05-18T21:36:17.781Z,10.88
2023-05-18T21:38:46.895Z,9.68
2023-05-18T21:41:16.377Z,9.18
2023-05-18T21:43:46.211Z,9.00
2023-05-18T21:46:15.617Z,8.30
2023-05-18T21:48:45.009Z,8.60
2023-05-18T21:51:14.148Z,8.15
2023-05-18T21:53:43.486Z,8.58
2023-05-18T21:56:12.302Z,8.43
2023-05-18T21:58:41.830Z,8.60
2023-05-18T22:01:11.276Z,8.40
2023-05-18T22:03:40.542Z,8.30
2023-05-18T22:06:10.036Z,7.80
2023-05-18T22:08:39.616Z,8.65
2023-05-18T22:11:08.809Z,8.65
2023-05-18T22:13:37.832Z,9.40
2023-05-18T22:16:06.650Z,9.35
2023-05-18T22:21:13.489Z,9.18
2023-05-18T22:23:44.071Z,9.03
2023-05-18T22:26:13.582Z,9.53
2023-05-18T22:28:42.640Z,9.63
2023-05-18T22:31:11.551Z,9.45
2023-05-18T22:33:41.341Z,9.00
2023-05-18T22:36:10.119Z,8.48
2023-05-18T22:38:40.766Z,9.53
2023-05-18T22:41:10.973Z,8.88
2023-05-18T22:43:40.680Z,9.63
2023-05-18T22:46:10.025Z,9.60
2023-05-18T22:48:39.238Z,9.48
2023-05-18T22:51:08.342Z,9.43
2023-05-18T22:53:37.240Z,9.60
2023-05-18T22:56:06.954Z,9.53
2023-05-18T22:58:35.643Z,9.60
2023-05-18T23:01:04.307Z,9.83
2023-05-18T23:03:34.354Z,10.10
2023-05-18T23:06:03.668Z,10.68
2023-05-18T23:08:35.813Z,10.20
2023-05-18T23:11:05.909Z,10.55
2023-05-18T23:13:38.741Z,10.78
2023-05-18T23:16:10.567Z,10.80
2023-05-18T23:18:40.069Z,10.50
2023-05-18T23:21:10.321Z,10.48
2023-05-18T23:23:39.668Z,10.68
2023-05-18T23:26:08.951Z,10.60
2023-05-18T23:28:38.384Z,10.32
2023-05-18T23:31:07.493Z,10.32
2023-05-18T23:33:38.027Z,10.88
2023-05-18T23:36:08.552Z,11.25
2023-05-18T23:38:40.593Z,10.78
2023-05-18T23:41:09.918Z,10.63
2023-05-18T23:43:40.756Z,11.40
2023-05-18T23:46:11.456Z,10.65
2023-05-18T23:48:41.829Z,9.98
2023-05-18T23:51:11.841Z,10.20
2023-05-18T23:53:41.168Z,10.32
2023-05-18T23:56:12.802Z,9.73
2023-05-18T23:58:46.258Z,10.40
